Search for airport 
image banner adimage banner adimage banner ad
image banner ad

PS05 - G&N

Located in Albion, United States

ICAO - PS05, IATA -

Data provided by Airmate  

General information

Coordinates: N41°52'31" W80°22'29"
Elevation is 985 feet MSL.
Magnetic variation is -08° East
View others Airports in Pennsylvania

Operational data

Special qualification required
Current time UTC:
Current local time:
Weather at : KERI - Erie Intl/Tom Ridge Field ( 28 km )
METAR: KERI 091651Z 12007KT 080V160 10SM -RA BKN039 OVC048 08/02 A2995 RMK AO2 RAB32 SLP146 P0000 T00830017
TAF: KERI 091126Z 0912/1012 17005KT P6SM BKN200 FM091600 14006KT 6SM -RA OVC035 FM091800 10008KT 5SM -RA OVC025 FM092100 05014G22KT 2SM RA OVC008 FM100300 02012G20KT P6SM OVC008 FM100700 35007KT P6SM BKN025
View NOTAMs / SUP AIP / TFR affecting this airport [VIEW]
Communications frequencies: [VIEW]

Runways:

RWY identifierQFULength (ft)Width (ft)SurfaceLDA (ft)
092700100GRASS
272700100GRASS

Airport contact information

Address: Albion United States

Satellite view of PS05